sensor_id;sensor_type;location;lat;lon;timestamp;P1;durP1;ratioP1;P2;durP2;ratioP2
15480;SDS011;7842;50.904;6.670;2022-11-18T00:01:43;5.78;;;3.20;;
15480;SDS011;7842;50.904;6.670;2022-11-18T00:04:09;6.37;;;3.47;;
15480;SDS011;7842;50.904;6.670;2022-11-18T00:06:34;5.20;;;2.95;;
15480;SDS011;7842;50.904;6.670;2022-11-18T00:09:00;6.22;;;3.05;;
15480;SDS011;7842;50.904;6.670;2022-11-18T00:11:26;5.63;;;2.97;;
15480;SDS011;7842;50.904;6.670;2022-11-18T00:14:13;4.95;;;2.95;;
15480;SDS011;7842;50.904;6.670;2022-11-18T00:16:51;5.30;;;2.92;;
15480;SDS011;7842;50.904;6.670;2022-11-18T00:19:24;6.07;;;3.20;;
15480;SDS011;7842;50.904;6.670;2022-11-18T00:21:51;7.63;;;3.28;;
15480;SDS011;7842;50.904;6.670;2022-11-18T00:24:17;4.43;;;3.00;;
15480;SDS011;7842;50.904;6.670;2022-11-18T00:26:43;5.43;;;3.10;;
15480;SDS011;7842;50.904;6.670;2022-11-18T00:29:09;5.47;;;2.78;;
15480;SDS011;7842;50.904;6.670;2022-11-18T00:31:35;5.80;;;2.92;;
15480;SDS011;7842;50.904;6.670;2022-11-18T00:34:01;5.97;;;3.03;;
15480;SDS011;7842;50.904;6.670;2022-11-18T00:36:27;5.13;;;2.97;;
15480;SDS011;7842;50.904;6.670;2022-11-18T00:38:53;4.88;;;2.97;;
15480;SDS011;7842;50.904;6.670;2022-11-18T00:41:19;5.27;;;2.80;;
15480;SDS011;7842;50.904;6.670;2022-11-18T00:43:45;4.40;;;2.80;;
15480;SDS011;7842;50.904;6.670;2022-11-18T00:46:10;6.20;;;2.77;;
15480;SDS011;7842;50.904;6.670;2022-11-18T00:48:37;5.53;;;2.63;;
15480;SDS011;7842;50.904;6.670;2022-11-18T00:51:21;4.30;;;2.60;;
15480;SDS011;7842;50.904;6.670;2022-11-18T00:53:46;4.15;;;2.60;;
15480;SDS011;7842;50.904;6.670;2022-11-18T00:56:12;4.78;;;2.63;;
15480;SDS011;7842;50.904;6.670;2022-11-18T00:58:37;4.57;;;2.57;;
15480;SDS011;7842;50.904;6.670;2022-11-18T01:01:03;4.40;;;2.63;;
15480;SDS011;7842;50.904;6.670;2022-11-18T01:03:29;4.75;;;2.60;;
15480;SDS011;7842;50.904;6.670;2022-11-18T01:05:55;5.57;;;2.72;;
15480;SDS011;7842;50.904;6.670;2022-11-18T01:08:21;5.32;;;2.50;;
15480;SDS011;7842;50.904;6.670;2022-11-18T01:10:50;4.70;;;2.43;;
15480;SDS011;7842;50.904;6.670;2022-11-18T01:13:17;3.97;;;2.10;;
15480;SDS011;7842;50.904;6.670;2022-11-18T01:15:50;5.32;;;2.70;;
15480;SDS011;7842;50.904;6.670;2022-11-18T01:18:22;5.15;;;2.40;;
15480;SDS011;7842;50.904;6.670;2022-11-18T01:20:49;4.63;;;2.80;;
15480;SDS011;7842;50.904;6.670;2022-11-18T01:23:15;4.40;;;2.63;;
15480;SDS011;7842;50.904;6.670;2022-11-18T01:25:42;6.10;;;2.30;;
15480;SDS011;7842;50.904;6.670;2022-11-18T01:28:09;5.57;;;2.55;;
15480;SDS011;7842;50.904;6.670;2022-11-18T01:30:36;4.32;;;2.50;;
15480;SDS011;7842;50.904;6.670;2022-11-18T01:33:03;4.10;;;2.50;;
15480;SDS011;7842;50.904;6.670;2022-11-18T01:35:39;4.88;;;2.55;;
15480;SDS011;7842;50.904;6.670;2022-11-18T01:38:07;4.30;;;2.72;;
15480;SDS011;7842;50.904;6.670;2022-11-18T01:40:34;3.53;;;2.60;;
15480;SDS011;7842;50.904;6.670;2022-11-18T01:42:59;5.18;;;2.75;;
15480;SDS011;7842;50.904;6.670;2022-11-18T01:45:30;4.20;;;2.72;;
15480;SDS011;7842;50.904;6.670;2022-11-18T01:48:15;4.82;;;3.03;;
15480;SDS011;7842;50.904;6.670;2022-11-18T01:51:12;5.63;;;3.00;;
15480;SDS011;7842;50.904;6.670;2022-11-18T01:53:42;4.97;;;2.80;;
15480;SDS011;7842;50.904;6.670;2022-11-18T01:56:15;5.38;;;2.78;;
15480;SDS011;7842;50.904;6.670;2022-11-18T01:59:05;5.20;;;2.83;;
15480;SDS011;7842;50.904;6.670;2022-11-18T02:01:37;5.18;;;2.80;;
15480;SDS011;7842;50.904;6.670;2022-11-18T02:04:03;4.97;;;3.10;;
15480;SDS011;7842;50.904;6.670;2022-11-18T02:06:29;5.05;;;3.10;;
15480;SDS011;7842;50.904;6.670;2022-11-18T02:08:55;4.68;;;2.80;;
15480;SDS011;7842;50.904;6.670;2022-11-18T02:11:21;4.82;;;3.00;;
15480;SDS011;7842;50.904;6.670;2022-11-18T02:14:06;4.43;;;2.63;;
15480;SDS011;7842;50.904;6.670;2022-11-18T02:30:24;5.20;;;2.80;;
15480;SDS011;7842;50.904;6.670;2022-11-18T02:32:55;4.60;;;2.80;;
15480;SDS011;7842;50.904;6.670;2022-11-18T02:40:45;5.67;;;3.00;;
15480;SDS011;7842;50.904;6.670;2022-11-18T02:43:33;5.68;;;3.40;;
15480;SDS011;7842;50.904;6.670;2022-11-18T02:46:08;5.07;;;3.30;;
15480;SDS011;7842;50.904;6.670;2022-11-18T02:48:37;5.75;;;3.28;;
15480;SDS011;7842;50.904;6.670;2022-11-18T02:51:06;7.35;;;3.35;;
15480;SDS011;7842;50.904;6.670;2022-11-18T02:53:34;4.55;;;3.05;;
15480;SDS011;7842;50.904;6.670;2022-11-18T02:56:02;6.05;;;3.42;;
15480;SDS011;7842;50.904;6.670;2022-11-18T02:58:28;6.20;;;3.25;;
15480;SDS011;7842;50.904;6.670;2022-11-18T03:00:55;5.97;;;3.17;;
15480;SDS011;7842;50.904;6.670;2022-11-18T03:03:34;4.60;;;2.90;;
15480;SDS011;7842;50.904;6.670;2022-11-18T03:08:50;6.13;;;3.13;;
15480;SDS011;7842;50.904;6.670;2022-11-18T03:11:24;5.05;;;3.40;;
15480;SDS011;7842;50.904;6.670;2022-11-18T03:16:35;4.53;;;3.00;;
15480;SDS011;7842;50.904;6.670;2022-11-18T03:22:11;4.82;;;3.40;;
15480;SDS011;7842;50.904;6.670;2022-11-18T03:24:39;4.55;;;3.20;;
15480;SDS011;7842;50.904;6.670;2022-11-18T03:27:13;6.40;;;3.05;;
15480;SDS011;7842;50.904;6.670;2022-11-18T03:29:52;5.57;;;3.00;;
15480;SDS011;7842;50.904;6.670;2022-11-18T03:32:25;4.72;;;3.38;;
15480;SDS011;7842;50.904;6.670;2022-11-18T03:34:56;6.35;;;3.22;;
15480;SDS011;7842;50.904;6.670;2022-11-18T03:37:26;6.25;;;3.00;;
15480;SDS011;7842;50.904;6.670;2022-11-18T03:39:53;5.25;;;3.20;;
15480;SDS011;7842;50.904;6.670;2022-11-18T03:42:31;6.53;;;2.97;;
15480;SDS011;7842;50.904;6.670;2022-11-18T03:45:04;5.57;;;3.10;;
15480;SDS011;7842;50.904;6.670;2022-11-18T03:47:37;5.40;;;3.15;;
15480;SDS011;7842;50.904;6.670;2022-11-18T03:50:15;4.60;;;2.97;;
15480;SDS011;7842;50.904;6.670;2022-11-18T03:52:45;5.50;;;3.17;;
15480;SDS011;7842;50.904;6.670;2022-11-18T03:55:13;4.85;;;2.80;;
15480;SDS011;7842;50.904;6.670;2022-11-18T04:00:27;5.72;;;3.03;;
15480;SDS011;7842;50.904;6.670;2022-11-18T04:02:56;5.25;;;3.00;;
15480;SDS011;7842;50.904;6.670;2022-11-18T04:05:22;4.55;;;3.10;;
15480;SDS011;7842;50.904;6.670;2022-11-18T04:15:32;7.45;;;3.35;;
15480;SDS011;7842;50.904;6.670;2022-11-18T04:18:01;4.72;;;3.13;;
15480;SDS011;7842;50.904;6.670;2022-11-18T04:20:27;6.10;;;3.20;;
15480;SDS011;7842;50.904;6.670;2022-11-18T04:22:53;6.47;;;3.47;;
15480;SDS011;7842;50.904;6.670;2022-11-18T04:25:19;4.68;;;3.25;;
15480;SDS011;7842;50.904;6.670;2022-11-18T04:27:44;5.70;;;3.27;;
15480;SDS011;7842;50.904;6.670;2022-11-18T04:30:10;5.03;;;3.20;;
15480;SDS011;7842;50.904;6.670;2022-11-18T04:32:36;6.80;;;3.00;;
15480;SDS011;7842;50.904;6.670;2022-11-18T04:35:02;4.37;;;3.40;;
15480;SDS011;7842;50.904;6.670;2022-11-18T04:37:27;5.80;;;3.20;;
15480;SDS011;7842;50.904;6.670;2022-11-18T04:39:53;5.33;;;3.43;;
15480;SDS011;7842;50.904;6.670;2022-11-18T04:42:18;4.68;;;3.20;;
15480;SDS011;7842;50.904;6.670;2022-11-18T04:44:44;4.53;;;3.10;;
15480;SDS011;7842;50.904;6.670;2022-11-18T04:47:09;4.20;;;3.30;;
15480;SDS011;7842;50.904;6.670;2022-11-18T04:49:35;5.33;;;3.20;;
15480;SDS011;7842;50.904;6.670;2022-11-18T04:52:01;5.40;;;3.10;;
15480;SDS011;7842;50.904;6.670;2022-11-18T04:54:27;6.68;;;3.38;;
15480;SDS011;7842;50.904;6.670;2022-11-18T04:56:53;7.75;;;3.80;;
15480;SDS011;7842;50.904;6.670;2022-11-18T04:59:20;6.15;;;3.60;;
15480;SDS011;7842;50.904;6.670;2022-11-18T05:01:50;5.60;;;3.63;;
15480;SDS011;7842;50.904;6.670;2022-11-18T05:04:18;4.18;;;3.35;;
15480;SDS011;7842;50.904;6.670;2022-11-18T05:06:46;4.75;;;3.60;;
15480;SDS011;7842;50.904;6.670;2022-11-18T05:09:12;4.82;;;3.30;;
15480;SDS011;7842;50.904;6.670;2022-11-18T05:11:38;5.47;;;3.50;;
15480;SDS011;7842;50.904;6.670;2022-11-18T05:14:26;5.53;;;3.33;;
15480;SDS011;7842;50.904;6.670;2022-11-18T05:16:53;6.93;;;3.38;;
15480;SDS011;7842;50.904;6.670;2022-11-18T05:19:20;6.03;;;3.30;;
15480;SDS011;7842;50.904;6.670;2022-11-18T05:21:45;6.20;;;3.75;;
15480;SDS011;7842;50.904;6.670;2022-11-18T05:24:11;8.83;;;4.87;;
15480;SDS011;7842;50.904;6.670;2022-11-18T05:26:36;8.67;;;5.40;;
15480;SDS011;7842;50.904;6.670;2022-11-18T05:29:02;9.40;;;5.38;;
15480;SDS011;7842;50.904;6.670;2022-11-18T05:31:27;10.57;;;5.68;;
15480;SDS011;7842;50.904;6.670;2022-11-18T05:33:53;6.13;;;4.23;;
15480;SDS011;7842;50.904;6.670;2022-11-18T05:36:19;8.23;;;4.10;;
15480;SDS011;7842;50.904;6.670;2022-11-18T05:38:46;4.13;;;3.30;;
15480;SDS011;7842;50.904;6.670;2022-11-18T05:41:11;5.72;;;3.70;;
15480;SDS011;7842;50.904;6.670;2022-11-18T05:43:56;6.00;;;3.80;;
15480;SDS011;7842;50.904;6.670;2022-11-18T05:46:22;5.53;;;3.50;;
15480;SDS011;7842;50.904;6.670;2022-11-18T05:48:48;6.70;;;3.92;;
15480;SDS011;7842;50.904;6.670;2022-11-18T05:51:14;6.73;;;4.40;;
15480;SDS011;7842;50.904;6.670;2022-11-18T05:53:40;8.57;;;4.93;;
15480;SDS011;7842;50.904;6.670;2022-11-18T05:56:08;8.82;;;4.47;;
15480;SDS011;7842;50.904;6.670;2022-11-18T05:58:42;8.75;;;4.38;;
15480;SDS011;7842;50.904;6.670;2022-11-18T06:01:08;7.63;;;4.63;;
15480;SDS011;7842;50.904;6.670;2022-11-18T06:03:35;9.50;;;4.97;;
15480;SDS011;7842;50.904;6.670;2022-11-18T06:06:03;8.63;;;5.57;;
15480;SDS011;7842;50.904;6.670;2022-11-18T06:08:32;10.93;;;6.75;;
15480;SDS011;7842;50.904;6.670;2022-11-18T06:11:01;12.93;;;7.83;;
15480;SDS011;7842;50.904;6.670;2022-11-18T06:13:28;10.87;;;7.30;;
15480;SDS011;7842;50.904;6.670;2022-11-18T06:15:58;10.18;;;6.15;;
15480;SDS011;7842;50.904;6.670;2022-11-18T06:18:28;8.40;;;4.83;;
15480;SDS011;7842;50.904;6.670;2022-11-18T06:20:57;7.18;;;4.47;;
15480;SDS011;7842;50.904;6.670;2022-11-18T06:23:25;5.25;;;3.95;;
15480;SDS011;7842;50.904;6.670;2022-11-18T06:25:53;5.05;;;4.30;;
15480;SDS011;7842;50.904;6.670;2022-11-18T06:28:19;6.80;;;4.75;;
15480;SDS011;7842;50.904;6.670;2022-11-18T06:30:46;5.30;;;4.50;;
15480;SDS011;7842;50.904;6.670;2022-11-18T06:33:11;5.45;;;4.20;;
15480;SDS011;7842;50.904;6.670;2022-11-18T06:35:37;5.90;;;3.97;;
15480;SDS011;7842;50.904;6.670;2022-11-18T06:38:02;4.10;;;3.70;;
15480;SDS011;7842;50.904;6.670;2022-11-18T06:40:28;4.00;;;3.25;;
15480;SDS011;7842;50.904;6.670;2022-11-18T06:42:54;3.83;;;3.00;;
15480;SDS011;7842;50.904;6.670;2022-11-18T06:45:38;5.47;;;3.17;;
15480;SDS011;7842;50.904;6.670;2022-11-18T06:48:24;5.28;;;2.88;;
15480;SDS011;7842;50.904;6.670;2022-11-18T06:50:49;5.13;;;3.37;;
15480;SDS011;7842;50.904;6.670;2022-11-18T06:53:15;4.10;;;3.20;;
15480;SDS011;7842;50.904;6.670;2022-11-18T06:55:40;5.40;;;3.70;;
15480;SDS011;7842;50.904;6.670;2022-11-18T06:58:06;5.10;;;3.30;;
15480;SDS011;7842;50.904;6.670;2022-11-18T07:00:31;4.63;;;3.50;;
15480;SDS011;7842;50.904;6.670;2022-11-18T07:02:57;5.63;;;3.78;;
15480;SDS011;7842;50.904;6.670;2022-11-18T07:05:23;6.57;;;3.97;;
15480;SDS011;7842;50.904;6.670;2022-11-18T07:07:48;4.60;;;3.30;;
15480;SDS011;7842;50.904;6.670;2022-11-18T07:10:14;4.97;;;3.47;;
15480;SDS011;7842;50.904;6.670;2022-11-18T07:12:40;6.70;;;3.50;;
15480;SDS011;7842;50.904;6.670;2022-11-18T07:15:05;5.93;;;3.85;;
15480;SDS011;7842;50.904;6.670;2022-11-18T07:17:31;4.95;;;3.58;;
15480;SDS011;7842;50.904;6.670;2022-11-18T07:19:57;4.97;;;3.08;;
15480;SDS011;7842;50.904;6.670;2022-11-18T07:22:22;3.88;;;2.50;;
15480;SDS011;7842;50.904;6.670;2022-11-18T07:24:48;3.50;;;2.60;;
15480;SDS011;7842;50.904;6.670;2022-11-18T07:27:13;4.60;;;3.30;;
15480;SDS011;7842;50.904;6.670;2022-11-18T07:29:39;4.70;;;2.80;;
15480;SDS011;7842;50.904;6.670;2022-11-18T07:32:05;3.80;;;2.85;;
15480;SDS011;7842;50.904;6.670;2022-11-18T07:34:30;7.20;;;5.75;;
15480;SDS011;7842;50.904;6.670;2022-11-18T07:36:56;9.07;;;5.90;;
15480;SDS011;7842;50.904;6.670;2022-11-18T07:39:22;5.77;;;4.30;;
15480;SDS011;7842;50.904;6.670;2022-11-18T07:41:47;6.20;;;4.60;;
15480;SDS011;7842;50.904;6.670;2022-11-18T07:44:13;7.43;;;5.40;;
15480;SDS011;7842;50.904;6.670;2022-11-18T07:46:38;5.75;;;4.22;;
15480;SDS011;7842;50.904;6.670;2022-11-18T07:49:05;18.17;;;13.95;;
15480;SDS011;7842;50.904;6.670;2022-11-18T07:51:34;8.77;;;7.05;;
15480;SDS011;7842;50.904;6.670;2022-11-18T07:54:04;5.83;;;4.93;;
15480;SDS011;7842;50.904;6.670;2022-11-18T07:56:31;5.20;;;4.03;;
15480;SDS011;7842;50.904;6.670;2022-11-18T07:58:57;5.57;;;4.00;;
15480;SDS011;7842;50.904;6.670;2022-11-18T08:01:23;5.15;;;3.47;;
15480;SDS011;7842;50.904;6.670;2022-11-18T08:03:51;5.43;;;3.80;;
15480;SDS011;7842;50.904;6.670;2022-11-18T08:06:17;4.10;;;3.40;;
15480;SDS011;7842;50.904;6.670;2022-11-18T08:08:43;6.18;;;3.70;;
15480;SDS011;7842;50.904;6.670;2022-11-18T08:11:11;5.13;;;3.70;;
15480;SDS011;7842;50.904;6.670;2022-11-18T08:13:38;5.88;;;3.70;;
15480;SDS011;7842;50.904;6.670;2022-11-18T08:16:04;5.70;;;4.07;;
15480;SDS011;7842;50.904;6.670;2022-11-18T08:18:35;5.75;;;4.03;;
15480;SDS011;7842;50.904;6.670;2022-11-18T08:21:01;5.45;;;3.75;;
15480;SDS011;7842;50.904;6.670;2022-11-18T08:23:27;6.63;;;4.38;;
15480;SDS011;7842;50.904;6.670;2022-11-18T08:25:59;5.60;;;3.80;;
15480;SDS011;7842;50.904;6.670;2022-11-18T08:28:27;5.07;;;4.40;;
15480;SDS011;7842;50.904;6.670;2022-11-18T08:30:52;5.23;;;3.40;;
15480;SDS011;7842;50.904;6.670;2022-11-18T08:33:18;6.67;;;2.80;;
15480;SDS011;7842;50.904;6.670;2022-11-18T08:35:44;3.63;;;2.50;;
15480;SDS011;7842;50.904;6.670;2022-11-18T08:38:09;3.17;;;2.53;;
15480;SDS011;7842;50.904;6.670;2022-11-18T08:40:35;5.80;;;2.93;;
15480;SDS011;7842;50.904;6.670;2022-11-18T08:43:00;6.30;;;3.20;;
15480;SDS011;7842;50.904;6.670;2022-11-18T08:45:26;4.18;;;2.80;;
15480;SDS011;7842;50.904;6.670;2022-11-18T08:47:51;5.72;;;3.00;;
15480;SDS011;7842;50.904;6.670;2022-11-18T08:50:17;5.73;;;2.70;;
15480;SDS011;7842;50.904;6.670;2022-11-18T08:52:43;6.90;;;2.37;;
15480;SDS011;7842;50.904;6.670;2022-11-18T08:55:08;6.20;;;2.53;;
15480;SDS011;7842;50.904;6.670;2022-11-18T08:57:34;3.95;;;2.38;;
15480;SDS011;7842;50.904;6.670;2022-11-18T08:59:59;5.40;;;2.60;;
15480;SDS011;7842;50.904;6.670;2022-11-18T09:02:25;5.17;;;2.80;;
15480;SDS011;7842;50.904;6.670;2022-11-18T09:04:51;4.43;;;2.90;;
15480;SDS011;7842;50.904;6.670;2022-11-18T09:07:17;4.80;;;2.73;;
15480;SDS011;7842;50.904;6.670;2022-11-18T09:09:44;4.20;;;2.25;;
15480;SDS011;7842;50.904;6.670;2022-11-18T09:12:09;4.37;;;2.73;;
15480;SDS011;7842;50.904;6.670;2022-11-18T09:14:40;5.80;;;2.70;;
15480;SDS011;7842;50.904;6.670;2022-11-18T09:17:06;5.82;;;3.17;;
15480;SDS011;7842;50.904;6.670;2022-11-18T09:19:32;5.63;;;2.88;;
15480;SDS011;7842;50.904;6.670;2022-11-18T09:21:58;4.37;;;2.47;;
15480;SDS011;7842;50.904;6.670;2022-11-18T09:24:23;5.00;;;2.00;;
15480;SDS011;7842;50.904;6.670;2022-11-18T09:26:49;5.73;;;1.90;;
15480;SDS011;7842;50.904;6.670;2022-11-18T09:29:15;3.63;;;2.03;;
15480;SDS011;7842;50.904;6.670;2022-11-18T09:31:40;6.53;;;2.28;;
15480;SDS011;7842;50.904;6.670;2022-11-18T09:34:06;4.23;;;2.10;;
15480;SDS011;7842;50.904;6.670;2022-11-18T09:36:34;5.93;;;2.17;;
15480;SDS011;7842;50.904;6.670;2022-11-18T09:38:59;4.67;;;2.40;;
15480;SDS011;7842;50.904;6.670;2022-11-18T09:44:11;4.90;;;1.95;;
15480;SDS011;7842;50.904;6.670;2022-11-18T09:49:42;3.05;;;1.50;;
15480;SDS011;7842;50.904;6.670;2022-11-18T09:52:15;4.60;;;1.88;;
15480;SDS011;7842;50.904;6.670;2022-11-18T09:54:52;4.00;;;1.63;;
15480;SDS011;7842;50.904;6.670;2022-11-18T09:57:19;3.53;;;1.80;;
15480;SDS011;7842;50.904;6.670;2022-11-18T09:59:47;4.18;;;1.92;;
15480;SDS011;7842;50.904;6.670;2022-11-18T10:02:22;3.53;;;1.48;;
15480;SDS011;7842;50.904;6.670;2022-11-18T10:05:14;3.10;;;1.50;;
15480;SDS011;7842;50.904;6.670;2022-11-18T10:07:45;4.88;;;2.30;;
15480;SDS011;7842;50.904;6.670;2022-11-18T10:10:33;3.80;;;1.50;;
15480;SDS011;7842;50.904;6.670;2022-11-18T10:13:03;6.18;;;3.15;;
15480;SDS011;7842;50.904;6.670;2022-11-18T10:15:58;5.33;;;2.10;;
15480;SDS011;7842;50.904;6.670;2022-11-18T10:18:41;5.60;;;1.70;;
15480;SDS011;7842;50.904;6.670;2022-11-18T10:21:19;4.45;;;1.40;;
15480;SDS011;7842;50.904;6.670;2022-11-18T10:24:01;6.60;;;3.25;;
15480;SDS011;7842;50.904;6.670;2022-11-18T10:26:35;6.05;;;2.83;;
15480;SDS011;7842;50.904;6.670;2022-11-18T10:29:03;5.60;;;1.77;;
15480;SDS011;7842;50.904;6.670;2022-11-18T10:31:35;4.78;;;1.65;;
15480;SDS011;7842;50.904;6.670;2022-11-18T10:34:02;4.93;;;1.50;;
15480;SDS011;7842;50.904;6.670;2022-11-18T10:36:29;3.93;;;1.50;;
15480;SDS011;7842;50.904;6.670;2022-11-18T10:39:06;3.60;;;1.40;;
15480;SDS011;7842;50.904;6.670;2022-11-18T10:41:38;3.05;;;1.33;;
15480;SDS011;7842;50.904;6.670;2022-11-18T10:44:26;6.65;;;1.40;;
15480;SDS011;7842;50.904;6.670;2022-11-18T10:47:05;4.87;;;1.80;;
15480;SDS011;7842;50.904;6.670;2022-11-18T10:49:38;3.88;;;1.42;;
15480;SDS011;7842;50.904;6.670;2022-11-18T10:52:13;4.03;;;1.70;;
15480;SDS011;7842;50.904;6.670;2022-11-18T10:54:39;3.30;;;1.70;;
15480;SDS011;7842;50.904;6.670;2022-11-18T10:59:49;5.90;;;1.83;;
15480;SDS011;7842;50.904;6.670;2022-11-18T11:02:20;3.97;;;1.67;;
15480;SDS011;7842;50.904;6.670;2022-11-18T11:04:58;4.65;;;2.00;;
15480;SDS011;7842;50.904;6.670;2022-11-18T11:07:29;4.82;;;2.17;;
15480;SDS011;7842;50.904;6.670;2022-11-18T11:12:34;4.70;;;1.75;;
15480;SDS011;7842;50.904;6.670;2022-11-18T11:15:03;3.20;;;1.52;;
15480;SDS011;7842;50.904;6.670;2022-11-18T11:17:38;5.55;;;1.80;;
15480;SDS011;7842;50.904;6.670;2022-11-18T11:20:18;5.00;;;1.85;;
15480;SDS011;7842;50.904;6.670;2022-11-18T11:22:46;5.38;;;1.45;;
15480;SDS011;7842;50.904;6.670;2022-11-18T11:28:02;5.90;;;1.65;;
15480;SDS011;7842;50.904;6.670;2022-11-18T11:30:40;6.43;;;1.58;;
15480;SDS011;7842;50.904;6.670;2022-11-18T11:33:21;5.63;;;1.80;;
15480;SDS011;7842;50.904;6.670;2022-11-18T11:36:19;5.05;;;1.70;;
15480;SDS011;7842;50.904;6.670;2022-11-18T11:42:07;3.95;;;1.60;;
15480;SDS011;7842;50.904;6.670;2022-11-18T11:44:57;5.30;;;1.92;;
15480;SDS011;7842;50.904;6.670;2022-11-18T11:47:53;5.30;;;1.65;;
15480;SDS011;7842;50.904;6.670;2022-11-18T11:52:56;8.32;;;1.88;;
15480;SDS011;7842;50.904;6.670;2022-11-18T11:55:46;6.65;;;1.92;;
15480;SDS011;7842;50.904;6.670;2022-11-18T11:58:36;6.90;;;2.03;;
15480;SDS011;7842;50.904;6.670;2022-11-18T12:01:18;7.10;;;2.10;;
15480;SDS011;7842;50.904;6.670;2022-11-18T12:07:20;4.20;;;1.90;;
15480;SDS011;7842;50.904;6.670;2022-11-18T12:15:10;3.47;;;1.42;;
15480;SDS011;7842;50.904;6.670;2022-11-18T12:20:48;4.90;;;1.90;;
15480;SDS011;7842;50.904;6.670;2022-11-18T12:23:19;4.45;;;1.70;;
15480;SDS011;7842;50.904;6.670;2022-11-18T12:28:25;4.20;;;2.42;;
15480;SDS011;7842;50.904;6.670;2022-11-18T12:33:44;5.53;;;2.05;;
15480;SDS011;7842;50.904;6.670;2022-11-18T12:36:37;4.20;;;2.28;;
15480;SDS011;7842;50.904;6.670;2022-11-18T12:41:58;4.87;;;1.90;;
15480;SDS011;7842;50.904;6.670;2022-11-18T12:44:47;3.57;;;2.03;;
15480;SDS011;7842;50.904;6.670;2022-11-18T12:47:15;5.22;;;2.03;;
15480;SDS011;7842;50.904;6.670;2022-11-18T12:50:07;4.57;;;1.60;;
15480;SDS011;7842;50.904;6.670;2022-11-18T12:55:01;3.83;;;1.63;;
15480;SDS011;7842;50.904;6.670;2022-11-18T12:57:35;4.63;;;1.63;;
15480;SDS011;7842;50.904;6.670;2022-11-18T13:00:17;2.75;;;1.80;;
15480;SDS011;7842;50.904;6.670;2022-11-18T13:02:52;3.63;;;1.70;;
15480;SDS011;7842;50.904;6.670;2022-11-18T13:05:20;4.35;;;1.65;;
15480;SDS011;7842;50.904;6.670;2022-11-18T13:13:39;2.83;;;1.52;;
15480;SDS011;7842;50.904;6.670;2022-11-18T13:19:20;4.00;;;2.00;;
15480;SDS011;7842;50.904;6.670;2022-11-18T13:21:51;5.07;;;1.92;;
15480;SDS011;7842;50.904;6.670;2022-11-18T13:24:51;5.70;;;2.20;;
15480;SDS011;7842;50.904;6.670;2022-11-18T13:30:15;4.93;;;2.20;;
15480;SDS011;7842;50.904;6.670;2022-11-18T13:32:43;3.70;;;1.70;;
15480;SDS011;7842;50.904;6.670;2022-11-18T13:35:22;3.95;;;1.58;;
15480;SDS011;7842;50.904;6.670;2022-11-18T13:37:58;5.40;;;1.83;;
15480;SDS011;7842;50.904;6.670;2022-11-18T13:40:26;5.30;;;1.55;;
15480;SDS011;7842;50.904;6.670;2022-11-18T13:43:03;4.53;;;1.65;;
15480;SDS011;7842;50.904;6.670;2022-11-18T13:45:29;4.95;;;1.70;;
15480;SDS011;7842;50.904;6.670;2022-11-18T13:48:05;4.07;;;1.52;;
15480;SDS011;7842;50.904;6.670;2022-11-18T13:50:37;4.57;;;1.90;;
15480;SDS011;7842;50.904;6.670;2022-11-18T13:56:06;3.90;;;1.70;;
15480;SDS011;7842;50.904;6.670;2022-11-18T13:58:41;5.43;;;1.63;;
15480;SDS011;7842;50.904;6.670;2022-11-18T14:01:30;5.07;;;1.83;;
15480;SDS011;7842;50.904;6.670;2022-11-18T14:04:17;3.83;;;1.40;;
15480;SDS011;7842;50.904;6.670;2022-11-18T14:06:45;3.40;;;1.70;;
15480;SDS011;7842;50.904;6.670;2022-11-18T14:09:16;3.67;;;1.80;;
15480;SDS011;7842;50.904;6.670;2022-11-18T14:11:57;4.88;;;1.42;;
15480;SDS011;7842;50.904;6.670;2022-11-18T14:14:35;4.47;;;1.60;;
15480;SDS011;7842;50.904;6.670;2022-11-18T14:19:48;3.65;;;1.65;;
15480;SDS011;7842;50.904;6.670;2022-11-18T14:22:20;3.90;;;1.98;;
15480;SDS011;7842;50.904;6.670;2022-11-18T14:24:58;4.63;;;1.83;;
15480;SDS011;7842;50.904;6.670;2022-11-18T14:27:27;5.13;;;2.00;;
15480;SDS011;7842;50.904;6.670;2022-11-18T14:33:10;6.85;;;3.65;;
15480;SDS011;7842;50.904;6.670;2022-11-18T14:35:42;6.25;;;3.00;;
15480;SDS011;7842;50.904;6.670;2022-11-18T14:38:19;5.47;;;2.55;;
15480;SDS011;7842;50.904;6.670;2022-11-18T14:40:57;4.15;;;2.00;;
15480;SDS011;7842;50.904;6.670;2022-11-18T14:43:25;4.60;;;2.17;;
15480;SDS011;7842;50.904;6.670;2022-11-18T14:45:52;3.53;;;1.70;;
15480;SDS011;7842;50.904;6.670;2022-11-18T14:48:20;4.13;;;2.10;;
15480;SDS011;7842;50.904;6.670;2022-11-18T14:50:47;5.72;;;2.10;;
15480;SDS011;7842;50.904;6.670;2022-11-18T14:53:13;5.82;;;2.00;;
15480;SDS011;7842;50.904;6.670;2022-11-18T14:55:39;5.07;;;2.10;;
15480;SDS011;7842;50.904;6.670;2022-11-18T14:58:07;8.15;;;2.38;;
15480;SDS011;7842;50.904;6.670;2022-11-18T15:00:38;4.60;;;1.70;;
15480;SDS011;7842;50.904;6.670;2022-11-18T15:03:04;6.35;;;2.92;;
15480;SDS011;7842;50.904;6.670;2022-11-18T15:05:30;7.10;;;2.73;;
15480;SDS011;7842;50.904;6.670;2022-11-18T15:07:55;7.10;;;2.30;;
15480;SDS011;7842;50.904;6.670;2022-11-18T15:10:21;4.33;;;2.13;;
15480;SDS011;7842;50.904;6.670;2022-11-18T15:12:47;4.18;;;2.10;;
15480;SDS011;7842;50.904;6.670;2022-11-18T15:15:12;4.57;;;2.20;;
15480;SDS011;7842;50.904;6.670;2022-11-18T15:17:39;5.90;;;2.20;;
15480;SDS011;7842;50.904;6.670;2022-11-18T15:20:05;5.45;;;2.35;;
15480;SDS011;7842;50.904;6.670;2022-11-18T15:22:31;2.87;;;2.00;;
15480;SDS011;7842;50.904;6.670;2022-11-18T15:24:58;4.60;;;2.20;;
15480;SDS011;7842;50.904;6.670;2022-11-18T15:27:24;3.97;;;1.90;;
15480;SDS011;7842;50.904;6.670;2022-11-18T15:29:49;4.10;;;1.80;;
15480;SDS011;7842;50.904;6.670;2022-11-18T15:32:15;3.60;;;1.77;;
15480;SDS011;7842;50.904;6.670;2022-11-18T15:34:40;3.75;;;1.73;;
15480;SDS011;7842;50.904;6.670;2022-11-18T15:37:09;4.75;;;2.00;;
15480;SDS011;7842;50.904;6.670;2022-11-18T15:39:36;4.32;;;1.98;;
15480;SDS011;7842;50.904;6.670;2022-11-18T15:42:02;3.30;;;1.80;;
15480;SDS011;7842;50.904;6.670;2022-11-18T15:44:27;2.63;;;1.77;;
15480;SDS011;7842;50.904;6.670;2022-11-18T15:46:53;3.27;;;1.80;;
15480;SDS011;7842;50.904;6.670;2022-11-18T15:49:19;4.70;;;2.47;;
15480;SDS011;7842;50.904;6.670;2022-11-18T15:51:45;6.63;;;3.60;;
15480;SDS011;7842;50.904;6.670;2022-11-18T15:54:10;9.20;;;5.32;;
15480;SDS011;7842;50.904;6.670;2022-11-18T15:56:36;5.90;;;4.00;;
15480;SDS011;7842;50.904;6.670;2022-11-18T15:59:08;5.85;;;3.38;;
15480;SDS011;7842;50.904;6.670;2022-11-18T16:01:39;7.47;;;4.28;;
15480;SDS011;7842;50.904;6.670;2022-11-18T16:04:07;5.53;;;3.33;;
15480;SDS011;7842;50.904;6.670;2022-11-18T16:06:34;6.40;;;3.72;;
15480;SDS011;7842;50.904;6.670;2022-11-18T16:09:00;6.00;;;3.58;;
15480;SDS011;7842;50.904;6.670;2022-11-18T16:11:27;4.70;;;2.90;;
15480;SDS011;7842;50.904;6.670;2022-11-18T16:14:12;7.03;;;4.40;;
15480;SDS011;7842;50.904;6.670;2022-11-18T16:16:40;7.23;;;5.37;;
15480;SDS011;7842;50.904;6.670;2022-11-18T16:19:08;7.03;;;5.22;;
15480;SDS011;7842;50.904;6.670;2022-11-18T16:21:36;5.00;;;3.30;;
15480;SDS011;7842;50.904;6.670;2022-11-18T16:24:04;3.53;;;2.22;;
15480;SDS011;7842;50.904;6.670;2022-11-18T16:26:31;3.28;;;2.42;;
15480;SDS011;7842;50.904;6.670;2022-11-18T16:28:58;4.15;;;2.50;;
15480;SDS011;7842;50.904;6.670;2022-11-18T16:31:24;4.67;;;2.53;;
15480;SDS011;7842;50.904;6.670;2022-11-18T16:34:12;4.10;;;2.70;;
15480;SDS011;7842;50.904;6.670;2022-11-18T16:36:58;5.40;;;3.08;;
15480;SDS011;7842;50.904;6.670;2022-11-18T16:39:25;5.35;;;2.60;;
15480;SDS011;7842;50.904;6.670;2022-11-18T16:41:52;3.25;;;2.42;;
15480;SDS011;7842;50.904;6.670;2022-11-18T16:44:19;3.85;;;2.40;;
15480;SDS011;7842;50.904;6.670;2022-11-18T16:46:45;4.83;;;2.60;;
15480;SDS011;7842;50.904;6.670;2022-11-18T16:49:13;4.03;;;2.30;;
15480;SDS011;7842;50.904;6.670;2022-11-18T16:51:40;3.42;;;2.03;;
15480;SDS011;7842;50.904;6.670;2022-11-18T16:54:09;3.78;;;2.50;;
15480;SDS011;7842;50.904;6.670;2022-11-18T16:56:41;2.75;;;2.03;;
15480;SDS011;7842;50.904;6.670;2022-11-18T16:59:10;3.10;;;2.00;;